createdAt,value
2023-04-08T00:01:00.766Z,16.93
2023-04-08T00:03:23.328Z,17.30
2023-04-08T00:05:45.962Z,17.57
2023-04-08T00:08:08.403Z,16.33
2023-04-08T00:10:30.765Z,13.33
2023-04-08T00:12:52.995Z,16.10
2023-04-08T00:15:15.363Z,16.73
2023-04-08T00:17:37.583Z,20.60
2023-04-08T00:20:00.176Z,21.00
2023-04-08T00:22:22.537Z,21.53
2023-04-08T00:24:45.092Z,18.77
2023-04-08T00:27:07.442Z,19.97
2023-04-08T00:29:29.903Z,23.73
2023-04-08T00:31:52.630Z,21.07
2023-04-08T00:34:15.054Z,20.50
2023-04-08T00:36:37.261Z,20.47
2023-04-08T00:38:59.513Z,19.43
2023-04-08T00:41:21.699Z,20.23
2023-04-08T00:43:43.905Z,20.87
2023-04-08T00:46:06.488Z,19.77
2023-04-08T00:48:28.785Z,20.10
2023-04-08T00:50:51.042Z,19.20
2023-04-08T00:53:14.535Z,19.17
2023-04-08T00:55:36.956Z,18.63
2023-04-08T00:57:59.164Z,20.20
2023-04-08T01:00:21.409Z,22.60
2023-04-08T01:02:46.867Z,19.67
2023-04-08T01:05:15.710Z,19.13
2023-04-08T01:07:39.186Z,20.50
2023-04-08T01:10:08.474Z,18.90
2023-04-08T01:12:32.527Z,21.83
2023-04-08T01:15:05.819Z,20.33
2023-04-08T01:17:28.520Z,24.30
2023-04-08T01:19:51.579Z,25.03
2023-04-08T01:22:38.117Z,19.37
2023-04-08T01:25:07.995Z,21.07
2023-04-08T01:27:31.586Z,19.13
2023-04-08T01:29:54.343Z,23.67
2023-04-08T01:32:17.100Z,20.47
2023-04-08T01:34:40.973Z,23.03
2023-04-08T01:37:03.597Z,19.77
2023-04-08T01:39:26.589Z,19.63
2023-04-08T01:41:49.836Z,17.80
2023-04-08T01:44:14.288Z,21.23
2023-04-08T01:46:36.750Z,21.13
2023-04-08T01:49:00.091Z,18.87
2023-04-08T01:51:23.251Z,18.47
2023-04-08T01:53:45.752Z,20.67
2023-04-08T01:56:10.338Z,18.20
2023-04-08T01:58:37.443Z,21.03
2023-04-08T02:01:00.570Z,20.40
2023-04-08T02:03:25.112Z,21.63
2023-04-08T02:05:47.626Z,17.30
2023-04-08T02:08:09.886Z,21.10
2023-04-08T02:10:32.190Z,17.53
2023-04-08T02:12:54.591Z,21.50
2023-04-08T02:15:17.284Z,19.20
2023-04-08T02:17:47.548Z,20.07
2023-04-08T02:20:32.260Z,19.77
2023-04-08T02:23:04.672Z,17.40
2023-04-08T02:25:28.376Z,20.97
2023-04-08T02:27:50.973Z,16.43
2023-04-08T02:30:14.213Z,17.80
2023-04-08T02:32:37.130Z,22.57
2023-04-08T02:35:00.591Z,19.97
2023-04-08T02:37:22.955Z,21.50
2023-04-08T02:39:45.179Z,17.60
2023-04-08T02:42:09.003Z,21.90
2023-04-08T02:44:32.397Z,19.03
2023-04-08T02:46:58.022Z,18.03
2023-04-08T02:49:20.234Z,16.80
2023-04-08T02:51:42.480Z,22.67
2023-04-08T02:54:04.837Z,21.93
2023-04-08T02:56:27.096Z,22.37
2023-04-08T02:58:49.571Z,22.33
2023-04-08T03:01:11.993Z,20.17
2023-04-08T03:03:34.436Z,19.87
2023-04-08T03:05:57.341Z,19.63
2023-04-08T03:08:19.584Z,19.23
2023-04-08T03:10:41.850Z,20.30
2023-04-08T03:13:04.162Z,19.43
2023-04-08T03:15:26.419Z,23.17
2023-04-08T03:17:48.913Z,21.27
2023-04-08T03:20:11.368Z,17.27
2023-04-08T03:22:34.035Z,17.90
2023-04-08T03:24:56.354Z,17.47
2023-04-08T03:27:18.561Z,19.13
2023-04-08T03:29:41.034Z,21.57
2023-04-08T03:32:03.430Z,24.00
2023-04-08T03:34:25.870Z,24.57
2023-04-08T03:36:48.097Z,25.53
2023-04-08T03:39:10.426Z,18.37
2023-04-08T03:41:32.694Z,20.53
2023-04-08T03:43:54.917Z,20.73
2023-04-08T03:46:17.366Z,17.47
2023-04-08T03:48:39.615Z,19.03
2023-04-08T03:51:01.826Z,16.93
2023-04-08T03:53:24.039Z,19.20
2023-04-08T03:55:46.245Z,20.10
2023-04-08T03:58:08.507Z,17.83
2023-04-08T04:00:30.850Z,19.80
2023-04-08T04:02:53.209Z,19.50
2023-04-08T04:05:15.485Z,18.97
2023-04-08T04:07:37.734Z,21.00
2023-04-08T04:09:59.958Z,20.90
2023-04-08T04:12:22.232Z,20.63
2023-04-08T04:14:44.463Z,21.43
2023-04-08T04:17:06.774Z,22.03
2023-04-08T04:19:32.325Z,25.03
2023-04-08T04:21:54.522Z,22.07
2023-04-08T04:24:16.826Z,22.10
2023-04-08T04:26:40.811Z,23.80
2023-04-08T04:29:03.030Z,20.40
2023-04-08T04:31:28.793Z,25.87
2023-04-08T04:33:51.068Z,21.77
2023-04-08T04:36:13.322Z,23.57
2023-04-08T04:38:35.504Z,25.37
2023-04-08T04:40:58.986Z,21.63
2023-04-08T04:43:21.263Z,25.33
2023-04-08T04:45:45.030Z,23.30
2023-04-08T04:48:07.618Z,23.70
2023-04-08T04:50:30.436Z,24.90
2023-04-08T04:52:52.645Z,23.90
2023-04-08T04:55:16.198Z,25.17
2023-04-08T04:57:38.492Z,23.30
2023-04-08T05:00:02.293Z,22.20
2023-04-08T05:02:26.455Z,20.80
2023-04-08T05:04:49.124Z,25.00
2023-04-08T05:07:11.375Z,21.07
2023-04-08T05:09:33.585Z,18.63
2023-04-08T05:11:55.850Z,20.33
2023-04-08T05:14:18.416Z,19.00
2023-04-08T05:16:40.734Z,25.60
2023-04-08T05:19:03.018Z,27.37
2023-04-08T05:21:26.178Z,24.20
2023-04-08T05:23:48.465Z,28.53
2023-04-08T05:26:10.682Z,28.20
2023-04-08T05:28:32.949Z,28.87
2023-04-08T05:30:55.509Z,25.60
2023-04-08T05:33:17.746Z,26.00
2023-04-08T05:35:39.967Z,29.40
2023-04-08T05:38:02.213Z,27.70
2023-04-08T05:40:24.756Z,25.30
2023-04-08T05:42:47.045Z,28.13
2023-04-08T05:45:09.401Z,29.73
2023-04-08T05:47:31.613Z,28.37
2023-04-08T05:49:54.216Z,26.27
2023-04-08T05:52:16.650Z,26.70
2023-04-08T05:54:38.842Z,25.30
2023-04-08T05:57:01.125Z,28.63
2023-04-08T05:59:23.338Z,30.00
2023-04-08T06:01:45.890Z,30.43
2023-04-08T06:04:08.330Z,28.47
2023-04-08T06:06:35.476Z,28.43
2023-04-08T06:08:57.687Z,25.80
2023-04-08T06:11:19.923Z,26.33
2023-04-08T06:13:42.712Z,29.23
2023-04-08T06:16:12.139Z,27.70
2023-04-08T06:18:34.632Z,21.57
2023-04-08T06:20:56.841Z,23.80
2023-04-08T06:23:19.408Z,25.53
2023-04-08T06:25:42.053Z,24.97
2023-04-08T06:28:04.379Z,24.37
2023-04-08T06:30:26.634Z,26.00
2023-04-08T06:32:48.845Z,20.97
2023-04-08T06:35:11.272Z,19.70
2023-04-08T06:37:34.202Z,22.73
2023-04-08T06:39:56.406Z,22.87
2023-04-08T06:42:18.704Z,22.43
2023-04-08T06:44:59.846Z,24.67
2023-04-08T06:47:22.070Z,18.57
2023-04-08T06:49:44.256Z,21.37
2023-04-08T06:52:08.166Z,21.97
2023-04-08T06:54:30.395Z,23.17
2023-04-08T06:56:52.954Z,25.60
2023-04-08T06:59:15.491Z,25.27
2023-04-08T07:01:37.819Z,24.80
2023-04-08T07:04:02.436Z,22.10
2023-04-08T07:06:24.840Z,21.00
2023-04-08T07:08:47.179Z,21.47
2023-04-08T07:11:09.406Z,18.30
2023-04-08T07:13:31.587Z,22.13
2023-04-08T07:15:53.798Z,22.77
2023-04-08T07:18:16.021Z,22.57
2023-04-08T07:20:38.684Z,19.37
2023-04-08T07:23:00.985Z,23.57
2023-04-08T07:25:23.164Z,21.00
2023-04-08T07:27:45.635Z,23.13
2023-04-08T07:30:08.398Z,23.60
2023-04-08T07:32:30.712Z,23.83
2023-04-08T07:34:52.971Z,26.10
2023-04-08T07:37:15.346Z,21.43
2023-04-08T07:39:37.555Z,24.47
2023-04-08T07:41:59.838Z,24.87
2023-04-08T07:44:22.060Z,22.47
2023-04-08T07:46:46.276Z,22.73
2023-04-08T07:49:08.527Z,23.27
2023-04-08T07:51:30.718Z,20.47
2023-04-08T07:53:53.169Z,23.70
2023-04-08T07:56:18.174Z,20.53
2023-04-08T07:58:41.005Z,19.30
2023-04-08T08:01:03.634Z,22.57
2023-04-08T08:03:26.163Z,22.87
2023-04-08T08:05:49.006Z,20.40
2023-04-08T08:08:14.313Z,18.27
2023-04-08T08:10:36.534Z,19.37
2023-04-08T08:12:58.812Z,21.63
2023-04-08T08:15:21.078Z,17.90
2023-04-08T08:17:43.319Z,19.43
2023-04-08T08:20:05.700Z,19.43
2023-04-08T08:22:27.960Z,19.17
2023-04-08T08:24:50.866Z,17.67
2023-04-08T08:27:13.063Z,17.97
2023-04-08T08:29:35.297Z,16.20
2023-04-08T08:31:57.932Z,16.53
2023-04-08T08:34:20.135Z,17.30
2023-04-08T08:36:42.348Z,14.60
2023-04-08T08:39:04.566Z,18.13
2023-04-08T08:41:26.841Z,16.87
2023-04-08T08:43:49.413Z,16.27
2023-04-08T08:46:12.343Z,13.23
2023-04-08T08:48:36.761Z,15.80
2023-04-08T08:50:59.048Z,13.63
2023-04-08T08:53:23.220Z,12.97
2023-04-08T08:56:13.660Z,14.03
2023-04-08T08:58:30.881Z,14.00
2023-04-08T09:00:53.252Z,13.00
2023-04-08T09:03:20.652Z,14.90
2023-04-08T09:05:50.346Z,13.17
2023-04-08T09:08:32.173Z,11.90
2023-04-08T09:10:55.266Z,13.10
2023-04-08T09:13:17.660Z,13.70
2023-04-08T09:16:02.458Z,14.47
2023-04-08T09:18:24.896Z,14.20
2023-04-08T09:20:53.877Z,13.50
2023-04-08T09:23:16.226Z,13.60
2023-04-08T09:25:38.524Z,11.30
2023-04-08T09:28:03.183Z,13.07
2023-04-08T09:30:26.545Z,15.37
2023-04-08T09:32:52.872Z,12.80
2023-04-08T09:35:18.754Z,16.23
2023-04-08T09:37:41.025Z,12.70
2023-04-08T09:40:03.263Z,15.57
2023-04-08T09:42:25.620Z,16.92
2023-04-08T09:44:48.010Z,16.03
2023-04-08T09:47:13.751Z,17.23
2023-04-08T09:49:40.353Z,14.83
2023-04-08T09:52:05.490Z,14.88
2023-04-08T09:54:40.145Z,13.63
2023-04-08T09:57:11.929Z,14.00
2023-04-08T09:59:36.603Z,15.07
2023-04-08T10:02:03.909Z,13.20
2023-04-08T10:07:38.611Z,14.13
2023-04-08T10:10:02.292Z,14.00
2023-04-08T10:12:25.261Z,12.07
2023-04-08T10:15:06.626Z,13.57
2023-04-08T10:17:30.335Z,14.57
2023-04-08T10:19:52.791Z,11.35
2023-04-08T10:22:30.496Z,14.18
2023-04-08T10:25:11.964Z,12.70
2023-04-08T10:30:53.147Z,11.70
2023-04-08T10:33:23.336Z,11.25
2023-04-08T10:35:50.281Z,12.68
2023-04-08T10:38:13.634Z,11.25
2023-04-08T10:40:41.427Z,11.77
2023-04-08T10:43:05.485Z,11.55
2023-04-08T10:50:08.160Z,11.73
2023-04-08T10:52:30.662Z,12.68
2023-04-08T10:54:53.972Z,11.65
2023-04-08T10:57:17.318Z,12.95
2023-04-08T10:59:39.894Z,9.95
2023-04-08T11:04:47.917Z,11.52
2023-04-08T11:07:11.330Z,10.63
2023-04-08T11:09:37.733Z,11.57
2023-04-08T11:12:00.421Z,12.18
2023-04-08T11:22:16.786Z,13.25
2023-04-08T11:24:39.886Z,11.93
2023-04-08T11:27:06.531Z,11.98
2023-04-08T11:29:29.335Z,12.13
2023-04-08T11:31:52.205Z,12.52
2023-04-08T11:34:22.698Z,10.32
2023-04-08T11:37:16.063Z,9.15
2023-04-08T11:39:47.920Z,11.60
2023-04-08T11:42:52.758Z,10.45
2023-04-08T11:45:34.249Z,10.45
2023-04-08T11:47:56.834Z,9.95
2023-04-08T11:58:33.220Z,10.82
2023-04-08T12:00:56.016Z,7.85
2023-04-08T12:03:27.869Z,9.45
2023-04-08T12:05:51.027Z,9.02
2023-04-08T12:11:03.709Z,8.82
2023-04-08T12:13:37.888Z,8.57
2023-04-08T12:19:33.512Z,7.32
2023-04-08T12:21:56.826Z,7.45
2023-04-08T12:24:22.148Z,7.05
2023-04-08T12:26:55.298Z,7.18
2023-04-08T12:29:43.564Z,8.32
2023-04-08T12:32:06.161Z,6.05
2023-04-08T12:34:54.622Z,5.82
2023-04-08T12:37:17.564Z,7.30
2023-04-08T12:44:07.807Z,6.53
2023-04-08T12:46:33.721Z,8.00
2023-04-08T12:49:04.830Z,6.10
2023-04-08T12:51:29.452Z,6.68
2023-04-08T12:53:52.562Z,6.97
2023-04-08T12:56:30.008Z,6.03
2023-04-08T12:58:52.420Z,5.85
2023-04-08T13:01:14.981Z,6.30
2023-04-08T13:03:37.341Z,5.47
2023-04-08T13:05:59.926Z,6.55
2023-04-08T13:08:25.664Z,5.63
2023-04-08T13:10:53.219Z,5.68
2023-04-08T13:13:15.985Z,6.50
2023-04-08T13:19:02.768Z,6.70
2023-04-08T13:21:25.170Z,7.45
2023-04-08T13:23:47.558Z,5.95
2023-04-08T13:26:09.921Z,6.75
2023-04-08T13:28:32.177Z,5.95
2023-04-08T13:30:55.871Z,5.65
2023-04-08T13:33:18.222Z,6.45
2023-04-08T13:58:02.436Z,7.68
2023-04-08T14:14:56.868Z,8.63
2023-04-08T14:17:19.438Z,8.02
2023-04-08T14:19:43.100Z,7.35
2023-04-08T14:22:09.082Z,8.43
2023-04-08T14:24:32.795Z,10.43
2023-04-08T14:26:55.861Z,8.45
2023-04-08T14:29:19.554Z,9.10
2023-04-08T14:31:48.346Z,8.93
2023-04-08T14:34:11.265Z,8.35
2023-04-08T14:36:34.053Z,9.27
2023-04-08T14:38:56.914Z,9.40
2023-04-08T14:41:19.416Z,9.85
2023-04-08T14:43:48.617Z,11.38
2023-04-08T14:46:14.183Z,8.88
2023-04-08T14:49:01.694Z,10.15
2023-04-08T14:51:51.290Z,9.40
2023-04-08T14:54:16.876Z,11.00
2023-04-08T14:59:21.915Z,9.73
2023-04-08T15:01:45.074Z,10.32
2023-04-08T15:04:10.518Z,8.52
2023-04-08T15:06:33.369Z,11.48
2023-04-08T15:09:21.935Z,9.02
2023-04-08T15:11:44.707Z,11.18
2023-04-08T15:14:29.433Z,9.30
2023-04-08T15:16:56.176Z,9.25
2023-04-08T15:19:20.411Z,9.63
2023-04-08T15:21:57.126Z,9.57
2023-04-08T15:24:35.476Z,9.60
2023-04-08T15:27:03.721Z,8.65
2023-04-08T15:29:26.361Z,10.20
2023-04-08T15:31:59.268Z,10.38
2023-04-08T15:34:28.345Z,10.75
2023-04-08T15:36:58.603Z,9.90
2023-04-08T15:39:22.244Z,9.57
2023-04-08T15:41:54.059Z,9.32
2023-04-08T15:48:17.214Z,11.35
2023-04-08T15:50:46.651Z,11.25
2023-04-08T15:53:09.192Z,9.20
2023-04-08T15:55:31.688Z,10.65
2023-04-08T16:05:11.532Z,11.43
2023-04-08T16:07:37.602Z,11.75
2023-04-08T16:10:07.366Z,11.43
2023-04-08T16:12:35.609Z,11.50
2023-04-08T16:15:22.615Z,10.38
2023-04-08T16:18:02.712Z,11.05
2023-04-08T16:20:27.091Z,12.23
2023-04-08T16:22:52.743Z,11.30
2023-04-08T16:28:16.468Z,14.50
2023-04-08T16:30:44.110Z,11.95
2023-04-08T16:33:07.128Z,12.75
2023-04-08T16:35:29.977Z,13.43
2023-04-08T16:38:31.160Z,10.95
2023-04-08T16:40:54.209Z,12.32
2023-04-08T16:43:16.801Z,11.30
2023-04-08T16:45:40.423Z,12.40
2023-04-08T16:48:02.977Z,11.15
2023-04-08T16:53:29.592Z,10.93
2023-04-08T16:55:52.628Z,9.73
2023-04-08T16:58:16.489Z,10.95
2023-04-08T17:00:39.496Z,15.25
2023-04-08T17:06:34.163Z,10.82
2023-04-08T17:08:56.690Z,11.50
2023-04-08T17:11:19.433Z,10.75
2023-04-08T17:14:02.642Z,10.27
2023-04-08T17:16:34.729Z,9.10
2023-04-08T17:18:57.034Z,9.25
2023-04-08T17:21:19.979Z,10.68
2023-04-08T17:23:42.278Z,10.07
2023-04-08T17:26:08.858Z,8.60
2023-04-08T17:28:32.656Z,9.73
2023-04-08T17:30:54.995Z,12.73
2023-04-08T17:33:17.322Z,10.90
2023-04-08T17:35:39.630Z,10.77
2023-04-08T17:38:06.259Z,10.13
2023-04-08T17:40:31.482Z,12.90
2023-04-08T17:43:18.824Z,10.03
2023-04-08T17:45:41.217Z,11.17
2023-04-08T17:48:07.438Z,10.53
2023-04-08T17:50:38.442Z,12.67
2023-04-08T17:53:01.013Z,16.10
2023-04-08T17:55:23.271Z,17.60
2023-04-08T17:57:45.554Z,14.80
2023-04-08T18:00:08.208Z,15.90
2023-04-08T18:02:30.730Z,16.27
2023-04-08T18:04:53.187Z,17.33
2023-04-08T18:07:15.386Z,17.40
2023-04-08T18:09:37.650Z,17.87
2023-04-08T18:11:59.922Z,18.03
2023-04-08T18:14:22.302Z,17.03
2023-04-08T18:16:44.940Z,17.13
2023-04-08T18:19:07.255Z,19.33
2023-04-08T18:21:29.571Z,16.93
2023-04-08T18:23:52.076Z,16.97
2023-04-08T18:26:14.715Z,17.03
2023-04-08T18:28:39.929Z,16.23
2023-04-08T18:31:05.381Z,17.80
2023-04-08T18:33:28.266Z,18.30
2023-04-08T18:35:52.614Z,16.27
2023-04-08T18:38:14.924Z,17.53
2023-04-08T18:40:37.170Z,18.70
2023-04-08T18:43:02.144Z,19.10
2023-04-08T18:45:24.478Z,19.00
2023-04-08T18:47:47.157Z,20.70
2023-04-08T18:50:09.910Z,17.23
2023-04-08T18:52:32.243Z,17.07
2023-04-08T18:54:54.656Z,16.70
2023-04-08T18:57:16.842Z,15.93
2023-04-08T18:59:39.121Z,15.97
2023-04-08T19:02:01.502Z,17.47
2023-04-08T19:04:24.037Z,17.50
2023-04-08T19:06:46.484Z,19.50
2023-04-08T19:09:08.690Z,17.50
2023-04-08T19:11:31.517Z,18.57
2023-04-08T19:13:53.731Z,17.57
2023-04-08T19:16:15.962Z,16.47
2023-04-08T19:18:38.260Z,19.87
2023-04-08T19:21:01.458Z,17.30
2023-04-08T19:23:23.686Z,16.93
2023-04-08T19:25:47.162Z,19.93
2023-04-08T19:28:09.554Z,17.83
2023-04-08T19:30:35.488Z,19.37
2023-04-08T19:32:58.397Z,16.73
2023-04-08T19:35:20.663Z,18.90
2023-04-08T19:37:42.864Z,18.23
2023-04-08T19:40:05.744Z,18.50
2023-04-08T19:42:27.955Z,18.67
2023-04-08T19:44:50.903Z,17.70
2023-04-08T19:47:13.291Z,19.37
2023-04-08T19:49:40.762Z,18.27
2023-04-08T19:52:02.955Z,18.37
2023-04-08T19:54:25.431Z,17.53
2023-04-08T19:56:47.716Z,23.53
2023-04-08T19:59:10.927Z,21.60
2023-04-08T20:01:35.852Z,21.63
2023-04-08T20:03:58.286Z,21.53
2023-04-08T20:06:21.560Z,20.20
2023-04-08T20:08:43.811Z,21.37
2023-04-08T20:11:06.049Z,24.67
2023-04-08T20:13:28.579Z,25.90
2023-04-08T20:15:52.039Z,28.67
2023-04-08T20:18:15.354Z,27.77
2023-04-08T20:20:37.664Z,27.07
2023-04-08T20:22:59.901Z,24.40
2023-04-08T20:25:22.629Z,28.90
2023-04-08T20:27:44.814Z,27.80
2023-04-08T20:30:07.457Z,28.23
2023-04-08T20:32:30.826Z,30.77
2023-04-08T20:34:53.039Z,30.03
2023-04-08T20:37:16.572Z,29.57
2023-04-08T20:39:38.798Z,29.30
2023-04-08T20:42:01.787Z,27.80
2023-04-08T20:44:24.031Z,34.57
2023-04-08T20:46:48.559Z,31.37
2023-04-08T20:49:11.899Z,27.67
2023-04-08T20:51:34.839Z,34.90
2023-04-08T20:53:57.106Z,32.47
2023-04-08T20:56:19.383Z,34.70
2023-04-08T20:58:41.866Z,35.97
2023-04-08T21:01:04.226Z,32.40
2023-04-08T21:03:27.705Z,30.97
2023-04-08T21:05:50.631Z,35.80
2023-04-08T21:08:13.138Z,31.70
2023-04-08T21:10:35.368Z,29.80
2023-04-08T21:12:57.594Z,30.77
2023-04-08T21:15:19.943Z,32.90
2023-04-08T21:17:42.233Z,33.43
2023-04-08T21:20:04.681Z,31.30
2023-04-08T21:22:26.920Z,32.20
2023-04-08T21:24:49.211Z,32.67
2023-04-08T21:27:11.945Z,32.23
2023-04-08T21:29:34.172Z,31.63
2023-04-08T21:31:56.592Z,32.50
2023-04-08T21:34:18.929Z,30.97
2023-04-08T21:36:41.143Z,33.03
2023-04-08T21:39:03.369Z,31.20
2023-04-08T21:41:26.459Z,32.20
2023-04-08T21:43:50.658Z,34.30
2023-04-08T21:46:13.028Z,34.73
2023-04-08T21:48:35.332Z,30.73
2023-04-08T21:50:57.575Z,33.33
2023-04-08T21:53:22.085Z,34.10
2023-04-08T21:55:44.389Z,34.63
2023-04-08T21:58:09.565Z,30.33
2023-04-08T22:00:32.222Z,36.97
2023-04-08T22:02:54.771Z,32.40
2023-04-08T22:05:17.105Z,32.60
2023-04-08T22:07:39.542Z,31.37
2023-04-08T22:10:01.969Z,33.03
2023-04-08T22:12:24.389Z,34.27
2023-04-08T22:14:46.609Z,31.93
2023-04-08T22:17:08.967Z,33.77
2023-04-08T22:19:31.237Z,34.60
2023-04-08T22:21:53.540Z,33.77
2023-04-08T22:24:15.783Z,32.10
2023-04-08T22:26:38.041Z,34.00
2023-04-08T22:29:00.468Z,34.20
2023-04-08T22:31:22.772Z,32.63
2023-04-08T22:33:46.063Z,31.77
2023-04-08T22:36:08.349Z,35.70
2023-04-08T22:38:31.195Z,34.83
2023-04-08T22:40:53.505Z,33.83
2023-04-08T22:43:15.842Z,34.77
2023-04-08T22:45:38.333Z,35.83
2023-04-08T22:48:00.776Z,36.37
2023-04-08T22:50:23.190Z,32.87
2023-04-08T22:52:45.533Z,34.73
2023-04-08T22:55:07.906Z,34.13
2023-04-08T22:57:30.097Z,45.23
2023-04-08T22:59:52.299Z,35.73
2023-04-08T23:02:14.717Z,32.70
2023-04-08T23:04:36.985Z,33.73
2023-04-08T23:06:59.204Z,33.13
2023-04-08T23:09:23.688Z,34.67
2023-04-08T23:11:46.106Z,32.87
2023-04-08T23:14:08.332Z,31.07
2023-04-08T23:16:31.515Z,33.20
2023-04-08T23:18:53.918Z,33.50
2023-04-08T23:21:16.356Z,28.97
2023-04-08T23:23:38.607Z,32.57
2023-04-08T23:26:00.871Z,32.90
2023-04-08T23:28:23.128Z,30.73
2023-04-08T23:30:45.344Z,35.10
2023-04-08T23:33:07.606Z,31.60
2023-04-08T23:35:29.844Z,32.83
2023-04-08T23:37:52.084Z,32.60
2023-04-08T23:40:14.840Z,31.67
2023-04-08T23:42:37.099Z,33.27
2023-04-08T23:44:59.294Z,35.87
2023-04-08T23:47:21.693Z,31.23
2023-04-08T23:49:44.075Z,30.83
2023-04-08T23:52:06.317Z,34.17
2023-04-08T23:54:32.800Z,33.83
2023-04-08T23:56:56.040Z,34.70
2023-04-08T23:59:18.996Z,34.07
